Terminal Aerodrome Forecast
Issued by NWS

Home | Current Version | Previous Version | Text Only | Print | Product List | Glossary On
Versions: 1 2 3 4 5 6 7 8 9 10 11 12 13 14 15 16 17 18 19
000
FTUS44 KMAF 280500
TAFFST
TAF
KFST 280524Z 2806/0106 08012KT 2SM -FZDZ BR OVC004
     FM281600 13010KT P6SM BKN015
     FM281900 15012G20KT P6SM SCT020=

USA.gov is the U.S. government's official web portal to all federal, state and local government web resources and services.